Absecon Highlands, New Jersey
Current Conditions -  °F | °C
As of 8:01 PM on Wednesday 26 Nov 2014 (Local Time) from KACY Reporting Station
Light Snow Light Snow  
Wind Chill: 24°   Ceiling: 1100
Heat Index: 35°   Visibility: 4mi
Dew Point: 34°   Wind: 18mph
Humidity: 96%   Direction: 330°NNW
Pressure: 29.81"   Gusts: 26mph
Location:  39.4315°N, 74.5003°W
Report Text: KACY 270101Z 33016G23KT 4SM -SN BR OVC011 02/01 A2981 RMK AO2 CIG 006V014 P0000 T00170011
Loading
Personal Weather Stations






























Interactive Weather Map New forecast layout! Learn more

10-Day Weather Forecast

Advertisements
Track Severe Weather on mobile